createdAt,value
2018-09-01T00:00:11.596Z,0.00
2018-09-01T00:01:11.574Z,0.00
2018-09-01T00:02:11.577Z,0.00
2018-09-01T00:03:11.571Z,0.00
2018-09-01T00:04:11.579Z,0.00
2018-09-01T00:05:11.583Z,0.00
2018-09-01T00:06:11.568Z,0.00
2018-09-01T00:07:11.569Z,0.00
2018-09-01T00:08:11.576Z,0.00
2018-09-01T00:09:11.561Z,0.00
2018-09-01T00:10:11.558Z,0.00
2018-09-01T00:11:11.581Z,0.00
2018-09-01T00:12:11.569Z,0.00
2018-09-01T00:13:11.547Z,0.00
2018-09-01T00:14:11.536Z,0.00
2018-09-01T00:15:11.553Z,0.00
2018-09-01T00:16:11.541Z,0.00
2018-09-01T00:17:11.539Z,0.00
2018-09-01T00:18:11.537Z,0.00
2018-09-01T00:19:11.540Z,0.00
2018-09-01T00:20:11.539Z,0.00
2018-09-01T00:21:11.537Z,0.00
2018-09-01T00:22:11.533Z,0.00
2018-09-01T00:23:11.524Z,0.00
2018-09-01T00:24:11.527Z,0.00
2018-09-01T00:25:11.525Z,0.00
2018-09-01T00:26:11.516Z,0.00
2018-09-01T00:27:11.520Z,0.00
2018-09-01T00:28:11.520Z,0.00
2018-09-01T00:29:11.509Z,0.00
2018-09-01T00:30:11.500Z,0.00
2018-09-01T00:31:11.520Z,0.00
2018-09-01T00:32:11.499Z,0.00
2018-09-01T00:33:11.491Z,0.00
2018-09-01T00:34:11.500Z,0.00
2018-09-01T00:35:11.505Z,0.00
2018-09-01T00:36:11.491Z,0.00
2018-09-01T00:37:11.486Z,0.00
2018-09-01T00:38:11.485Z,0.00
2018-09-01T00:39:11.492Z,0.00
2018-09-01T00:40:11.484Z,0.00
2018-09-01T00:41:11.485Z,0.00
2018-09-01T00:42:11.486Z,0.00
2018-09-01T00:43:11.470Z,0.00
2018-09-01T00:44:11.464Z,0.00
2018-09-01T00:45:11.467Z,0.00
2018-09-01T00:46:11.474Z,0.00
2018-09-01T00:47:11.456Z,0.00
2018-09-01T00:48:11.452Z,0.00
2018-09-01T00:49:11.457Z,0.00
2018-09-01T00:50:11.449Z,0.00
2018-09-01T00:51:11.450Z,0.00
2018-09-01T00:52:11.460Z,0.00
2018-09-01T00:53:11.456Z,0.00
2018-09-01T00:54:11.442Z,0.00
2018-09-01T00:55:11.444Z,0.00
2018-09-01T00:56:11.439Z,0.00
2018-09-01T00:57:11.426Z,0.00
2018-09-01T00:58:11.426Z,0.00
2018-09-01T00:59:11.427Z,0.00
2018-09-01T01:00:11.425Z,0.00
2018-09-01T01:01:11.417Z,0.00
2018-09-01T01:02:11.417Z,0.00
2018-09-01T01:03:11.420Z,0.00
2018-09-01T01:04:11.411Z,0.00
2018-09-01T01:05:11.410Z,0.00
2018-09-01T01:06:11.407Z,0.00
2018-09-01T01:07:11.396Z,0.00
2018-09-01T01:08:11.391Z,0.00
2018-09-01T01:09:11.401Z,0.00
2018-09-01T01:10:11.393Z,0.00
2018-09-01T01:11:11.384Z,0.00
2018-09-01T01:12:11.395Z,0.00
2018-09-01T01:13:11.392Z,0.00
2018-09-01T01:14:11.375Z,0.00
2018-09-01T01:15:11.384Z,0.00
2018-09-01T01:16:11.395Z,0.00
2018-09-01T01:17:11.368Z,0.00
2018-09-01T01:18:11.365Z,0.00
2018-09-01T01:19:11.380Z,0.00
2018-09-01T01:20:11.375Z,0.00
2018-09-01T01:21:11.346Z,0.00
2018-09-01T01:22:11.363Z,0.00
2018-09-01T01:23:11.350Z,0.00
2018-09-01T01:24:11.350Z,0.00
2018-09-01T01:25:11.346Z,0.00
2018-09-01T01:26:11.353Z,0.00
2018-09-01T01:27:11.337Z,0.00
2018-09-01T01:28:11.366Z,0.00
2018-09-01T01:29:11.338Z,0.00
2018-09-01T01:30:11.321Z,0.00
2018-09-01T01:31:11.324Z,0.00
2018-09-01T01:32:11.328Z,0.00
2018-09-01T01:33:11.318Z,0.00
2018-09-01T01:34:11.317Z,0.00
2018-09-01T01:35:11.315Z,0.00
2018-09-01T01:36:11.300Z,0.00
2018-09-01T01:37:11.326Z,0.00
2018-09-01T01:38:11.309Z,0.00
2018-09-01T01:39:11.292Z,0.00
2018-09-01T01:40:11.294Z,0.00
2018-09-01T01:41:11.300Z,0.00
2018-09-01T01:42:11.280Z,0.00
2018-09-01T01:43:11.279Z,0.00
2018-09-01T01:44:11.290Z,0.00
2018-09-01T01:45:11.281Z,0.00
2018-09-01T01:46:11.281Z,0.00
2018-09-01T01:47:11.284Z,0.00
2018-09-01T01:48:11.261Z,0.00
2018-09-01T01:49:11.261Z,0.00
2018-09-01T01:50:11.269Z,0.00
2018-09-01T01:51:11.252Z,0.00
2018-09-01T01:52:11.254Z,0.00
2018-09-01T01:53:11.262Z,0.00
2018-09-01T01:54:11.268Z,0.00
2018-09-01T01:55:11.247Z,0.00
2018-09-01T01:56:11.250Z,0.00
2018-09-01T01:57:11.238Z,0.00
2018-09-01T01:58:11.240Z,0.00
2018-09-01T01:59:11.236Z,0.00
2018-09-01T02:00:11.239Z,0.00
2018-09-01T02:01:11.226Z,0.00
2018-09-01T02:02:11.227Z,0.00
2018-09-01T02:03:11.223Z,0.00
2018-09-01T02:04:11.218Z,0.00
2018-09-01T02:05:11.208Z,0.00
2018-09-01T02:06:11.204Z,0.00
2018-09-01T02:07:11.204Z,0.00
2018-09-01T02:08:11.215Z,0.00
2018-09-01T02:09:11.200Z,0.00
2018-09-01T02:10:11.201Z,0.00
2018-09-01T02:11:11.195Z,0.00
2018-09-01T02:12:11.183Z,0.00
2018-09-01T02:13:11.183Z,0.00
2018-09-01T02:14:11.173Z,0.00
2018-09-01T02:15:11.183Z,0.00
2018-09-01T02:16:11.184Z,0.00
2018-09-01T02:17:11.159Z,0.00
2018-09-01T02:18:11.163Z,0.00
2018-09-01T02:19:11.183Z,0.00
2018-09-01T02:20:11.154Z,0.00
2018-09-01T02:21:11.153Z,0.00
2018-09-01T02:22:11.146Z,0.00
2018-09-01T02:23:11.146Z,0.00
2018-09-01T02:24:11.150Z,0.00
2018-09-01T02:25:11.137Z,0.00
2018-09-01T02:26:11.137Z,0.00
2018-09-01T02:27:11.136Z,0.00
2018-09-01T02:28:11.142Z,0.00
2018-09-01T02:29:11.129Z,0.00
2018-09-01T02:30:11.120Z,0.00
2018-09-01T02:31:11.121Z,0.00
2018-09-01T02:32:11.108Z,0.00
2018-09-01T02:33:11.107Z,0.00
2018-09-01T02:34:11.107Z,0.00
2018-09-01T02:35:11.105Z,0.00
2018-09-01T02:36:11.097Z,0.00
2018-09-01T02:37:11.106Z,0.00
2018-09-01T02:38:11.100Z,0.00
2018-09-01T02:39:11.100Z,0.00
2018-09-01T02:40:11.092Z,0.00
2018-09-01T02:41:11.076Z,0.00
2018-09-01T02:42:11.071Z,0.00
2018-09-01T02:43:11.080Z,0.00
2018-09-01T02:44:11.061Z,0.00
2018-09-01T02:45:11.068Z,0.00
2018-09-01T02:46:11.067Z,0.00
2018-09-01T02:47:11.056Z,0.00
2018-09-01T02:48:11.055Z,0.00
2018-09-01T02:49:11.046Z,0.00
2018-09-01T02:50:11.050Z,0.00
2018-09-01T02:51:11.049Z,0.00
2018-09-01T02:52:11.038Z,0.00
2018-09-01T02:53:11.040Z,0.00
2018-09-01T02:54:11.038Z,0.00
2018-09-01T02:55:11.029Z,0.00
2018-09-01T02:56:11.027Z,0.00
2018-09-01T02:57:11.027Z,0.00
2018-09-01T02:58:11.016Z,0.00
2018-09-01T02:59:11.013Z,0.00
2018-09-01T03:00:11.005Z,0.00
2018-09-01T03:01:10.996Z,0.00
2018-09-01T03:02:11.034Z,0.00
2018-09-01T03:03:10.992Z,0.00
2018-09-01T03:04:10.988Z,0.00
2018-09-01T03:05:10.986Z,0.00
2018-09-01T03:06:10.987Z,0.00
2018-09-01T03:07:10.988Z,0.00
2018-09-01T03:08:10.980Z,0.00
2018-09-01T03:09:10.982Z,0.00
2018-09-01T03:10:10.978Z,0.00
2018-09-01T03:11:10.979Z,0.00
2018-09-01T03:12:10.964Z,0.00
2018-09-01T03:13:10.952Z,0.00
2018-09-01T03:14:10.954Z,0.00
2018-09-01T03:15:10.955Z,0.00
2018-09-01T03:16:10.951Z,0.00
2018-09-01T03:17:10.944Z,0.00
2018-09-01T03:18:10.939Z,0.00
2018-09-01T03:19:10.940Z,0.00
2018-09-01T03:20:10.936Z,0.00
2018-09-01T03:21:10.930Z,0.00
2018-09-01T03:22:10.929Z,0.00
2018-09-01T03:23:10.934Z,0.00
2018-09-01T03:24:10.912Z,0.00
2018-09-01T03:25:10.919Z,0.00
2018-09-01T03:26:10.919Z,0.00
2018-09-01T03:27:10.910Z,0.00
2018-09-01T03:28:10.908Z,0.00
2018-09-01T03:29:10.890Z,0.00
2018-09-01T03:30:10.901Z,0.00
2018-09-01T03:31:10.899Z,0.00
2018-09-01T03:32:10.896Z,0.00
2018-09-01T03:33:10.883Z,0.00
2018-09-01T03:34:10.880Z,0.00
2018-09-01T03:35:10.878Z,0.00
2018-09-01T03:36:10.869Z,0.00
2018-09-01T03:37:10.867Z,0.00
2018-09-01T03:38:10.870Z,0.00
2018-09-01T03:39:10.866Z,0.00
2018-09-01T03:40:10.857Z,0.00
2018-09-01T03:41:10.846Z,0.00
2018-09-01T03:42:10.851Z,0.00
2018-09-01T03:43:10.851Z,0.00
2018-09-01T03:44:10.844Z,0.00
2018-09-01T03:45:10.841Z,0.00
2018-09-01T03:46:10.836Z,0.00
2018-09-01T03:47:10.834Z,0.00
2018-09-01T03:48:10.830Z,0.00
2018-09-01T03:49:10.819Z,0.00
2018-09-01T03:50:10.813Z,0.00
2018-09-01T03:51:10.811Z,0.00
2018-09-01T03:52:10.820Z,0.00
2018-09-01T03:53:10.805Z,0.00
2018-09-01T03:54:10.795Z,0.00
2018-09-01T03:55:10.803Z,0.00
2018-09-01T03:56:10.794Z,0.00
2018-09-01T03:57:10.796Z,0.00
2018-09-01T03:58:10.776Z,0.00
2018-09-01T03:59:10.795Z,0.00
2018-09-01T04:00:10.777Z,0.00
2018-09-01T04:01:10.768Z,0.00
2018-09-01T04:02:10.769Z,0.00
2018-09-01T04:03:10.750Z,0.00
2018-09-01T04:04:10.754Z,0.00
2018-09-01T04:05:10.757Z,0.00
2018-09-01T04:06:10.755Z,0.00
2018-09-01T04:07:10.738Z,0.00
2018-09-01T04:08:10.734Z,0.00
2018-09-01T04:09:10.755Z,0.00
2018-09-01T04:10:10.729Z,0.00
2018-09-01T04:11:10.732Z,0.00
2018-09-01T04:12:10.735Z,0.00
2018-09-01T04:13:10.721Z,0.00
2018-09-01T04:14:10.722Z,0.00
2018-09-01T04:15:10.721Z,0.00
2018-09-01T04:16:10.712Z,4.00
2018-09-01T04:17:10.701Z,4.00
2018-09-01T04:18:10.696Z,0.00
2018-09-01T04:19:10.701Z,4.00
2018-09-01T04:20:10.698Z,4.00
2018-09-01T04:21:10.686Z,4.00
2018-09-01T04:22:10.696Z,8.00
2018-09-01T04:23:10.676Z,8.00
2018-09-01T04:24:10.677Z,12.00
2018-09-01T04:25:10.665Z,12.00
2018-09-01T04:26:10.669Z,12.00
2018-09-01T04:27:10.671Z,12.00
2018-09-01T04:28:10.661Z,16.00
2018-09-01T04:29:10.648Z,20.00
2018-09-01T04:30:10.644Z,24.00
2018-09-01T04:31:10.653Z,24.00
2018-09-01T04:32:10.658Z,32.00
2018-09-01T04:33:10.641Z,32.00
2018-09-01T04:34:10.632Z,36.00
2018-09-01T04:35:10.623Z,40.00
2018-09-01T04:36:10.627Z,48.00
2018-09-01T04:37:10.613Z,52.00
2018-09-01T04:38:10.619Z,60.00
2018-09-01T04:39:10.626Z,64.00
2018-09-01T04:40:10.605Z,68.00
2018-09-01T04:41:10.609Z,76.00
2018-09-01T04:42:10.593Z,80.00
2018-09-01T04:43:10.596Z,88.00
2018-09-01T04:44:10.588Z,100.00
2018-09-01T04:45:10.592Z,108.00
2018-09-01T04:46:10.587Z,116.00
2018-09-01T04:47:10.593Z,124.00
2018-09-01T04:48:10.581Z,136.00
2018-09-01T04:49:10.570Z,144.00
2018-09-01T04:50:10.565Z,152.00
2018-09-01T04:51:10.558Z,168.00
2018-09-01T04:52:10.559Z,176.00
2018-09-01T04:53:10.560Z,184.00
2018-09-01T04:54:10.547Z,196.00
2018-09-01T04:55:10.553Z,208.00
2018-09-01T04:56:10.536Z,220.00
2018-09-01T04:57:10.543Z,232.00
2018-09-01T04:58:10.542Z,244.00
2018-09-01T04:59:10.524Z,256.00
2018-09-01T05:00:10.538Z,268.00
2018-09-01T05:01:10.680Z,284.00
2018-09-01T05:02:10.517Z,296.00
2018-09-01T05:03:10.503Z,308.00
2018-09-01T05:04:10.507Z,324.00
2018-09-01T05:05:10.512Z,336.00
2018-09-01T05:06:10.499Z,348.00
2018-09-01T05:07:10.505Z,364.00
2018-09-01T05:08:10.488Z,376.00
2018-09-01T05:09:10.489Z,388.00
2018-09-01T05:10:10.481Z,404.00
2018-09-01T05:11:10.489Z,420.00
2018-09-01T05:12:10.484Z,432.00
2018-09-01T05:13:10.468Z,444.00
2018-09-01T05:14:10.467Z,460.00
2018-09-01T05:15:10.464Z,476.00
2018-09-01T05:16:10.451Z,488.00
2018-09-01T05:17:10.451Z,504.00
2018-09-01T05:18:10.451Z,516.00
2018-09-01T05:19:10.447Z,532.00
2018-09-01T05:20:10.429Z,544.00
2018-09-01T05:21:10.430Z,556.00
2018-09-01T05:22:10.427Z,568.00
2018-09-01T05:23:10.433Z,580.00
2018-09-01T05:24:10.416Z,596.00
2018-09-01T05:25:10.414Z,608.00
2018-09-01T05:26:10.416Z,616.00
2018-09-01T05:27:10.408Z,628.00
2018-09-01T05:28:10.407Z,640.00
2018-09-01T05:29:10.394Z,652.00
2018-09-01T05:30:10.394Z,668.00
2018-09-01T05:31:10.387Z,676.00
2018-09-01T05:32:10.392Z,688.00
2018-09-01T05:33:10.376Z,700.00
2018-09-01T05:34:10.379Z,712.00
2018-09-01T05:35:10.374Z,724.00
2018-09-01T05:36:10.373Z,732.00
2018-09-01T05:37:10.371Z,744.00
2018-09-01T05:38:10.356Z,752.00
2018-09-01T05:39:10.363Z,760.00
2018-09-01T05:40:10.352Z,772.00
2018-09-01T05:41:10.349Z,784.00
2018-09-01T05:42:10.344Z,788.00
2018-09-01T05:43:10.333Z,800.00
2018-09-01T05:44:10.327Z,812.00
2018-09-01T05:45:10.325Z,816.00
2018-09-01T05:46:10.259Z,828.00
2018-09-01T05:47:10.291Z,836.00
2018-09-01T05:48:10.248Z,844.00
2018-09-01T05:49:10.246Z,852.00
2018-09-01T05:50:10.229Z,860.00
2018-09-01T05:51:10.236Z,868.00
2018-09-01T05:52:10.237Z,876.00
2018-09-01T05:53:10.224Z,880.00
2018-09-01T05:54:10.221Z,892.00
2018-09-01T05:55:10.232Z,896.00
2018-09-01T05:56:10.219Z,904.00
2018-09-01T05:57:10.282Z,912.00
2018-09-01T05:58:10.206Z,920.00
2018-09-01T05:59:10.263Z,928.00
2018-09-01T06:00:10.195Z,932.00
2018-09-01T06:01:10.256Z,940.00
2018-09-01T06:02:10.180Z,948.00
2018-09-01T06:03:10.193Z,952.00
2018-09-01T06:04:10.185Z,960.00
2018-09-01T06:05:10.179Z,964.00
2018-09-01T06:06:10.328Z,972.00
2018-09-01T06:07:10.176Z,980.00
2018-09-01T06:08:10.230Z,984.00
2018-09-01T06:09:10.170Z,996.00
2018-09-01T06:10:10.160Z,1000.00
2018-09-01T06:11:10.166Z,1008.00
2018-09-01T06:12:10.220Z,1016.00
2018-09-01T06:13:10.138Z,1024.00
2018-09-01T06:14:10.137Z,1028.00
2018-09-01T06:15:10.213Z,1040.00
2018-09-01T06:16:10.141Z,1044.00
2018-09-01T06:17:10.105Z,1052.00
2018-09-01T06:18:10.187Z,1060.00
2018-09-01T06:19:10.151Z,1064.00
2018-09-01T06:20:10.143Z,1072.00
2018-09-01T06:21:10.121Z,1080.00
2018-09-01T06:22:10.129Z,1088.00
2018-09-01T06:23:10.108Z,1100.00
2018-09-01T06:24:10.111Z,1108.00
2018-09-01T06:25:10.105Z,1120.00
2018-09-01T06:26:10.168Z,1128.00
2018-09-01T06:27:10.162Z,1140.00
2018-09-01T06:28:10.085Z,1152.00
2018-09-01T06:29:10.150Z,1160.00
2018-09-01T06:30:10.126Z,1168.00
2018-09-01T06:31:10.070Z,1176.00
2018-09-01T06:32:10.062Z,1184.00
2018-09-01T06:33:10.070Z,1196.00
2018-09-01T06:34:10.055Z,1204.00
2018-09-01T06:35:10.109Z,1216.00
2018-09-01T06:36:10.047Z,1224.00
2018-09-01T06:37:10.067Z,1236.00
2018-09-01T06:38:10.112Z,1244.00
2018-09-01T06:39:10.045Z,1256.00
2018-09-01T06:40:10.032Z,1264.00
2018-09-01T06:41:10.037Z,1272.00
2018-09-01T06:42:10.103Z,1284.00
2018-09-01T06:43:10.085Z,1292.00
2018-09-01T06:44:10.050Z,1300.00
2018-09-01T06:45:10.067Z,1300.00
2018-09-01T06:46:10.077Z,1312.00
2018-09-01T06:47:10.084Z,1320.00
2018-09-01T06:48:10.066Z,1328.00
2018-09-01T06:49:09.987Z,1336.00
2018-09-01T06:50:10.008Z,1340.00
2018-09-01T06:51:09.988Z,1348.00
2018-09-01T06:52:10.062Z,1356.00
2018-09-01T06:53:10.050Z,1360.00
2018-09-01T06:54:10.049Z,1368.00
2018-09-01T06:55:10.064Z,1372.00
2018-09-01T06:56:10.037Z,1380.00
2018-09-01T06:57:10.047Z,1380.00
2018-09-01T06:58:09.973Z,1384.00
2018-09-01T06:59:10.027Z,1392.00
2018-09-01T07:00:10.035Z,1396.00
2018-09-01T07:01:09.967Z,1400.00
2018-09-01T07:02:10.014Z,1404.00
2018-09-01T07:03:10.013Z,1408.00
2018-09-01T07:04:09.944Z,1416.00
2018-09-01T07:05:09.996Z,1416.00
2018-09-01T07:06:09.922Z,1420.00
2018-09-01T07:07:09.931Z,1424.00
2018-09-01T07:08:10.914Z,1428.00
2018-09-01T07:09:09.935Z,1428.00
2018-09-01T07:10:09.922Z,1432.00
2018-09-01T07:11:09.977Z,1436.00
2018-09-01T07:12:09.919Z,1436.00
2018-09-01T07:13:09.924Z,1440.00
2018-09-01T07:14:09.927Z,1444.00
2018-09-01T07:15:09.897Z,1452.00
2018-09-01T07:16:09.901Z,1452.00
2018-09-01T07:17:09.929Z,1456.00
2018-09-01T07:18:09.880Z,1464.00
2018-09-01T07:19:09.898Z,1468.00
2018-09-01T07:20:09.877Z,1472.00
2018-09-01T07:21:09.879Z,1476.00
2018-09-01T07:22:09.888Z,1480.00
2018-09-01T07:23:09.867Z,1484.00
2018-09-01T07:24:09.877Z,1492.00
2018-09-01T07:25:09.877Z,1496.00
2018-09-01T07:26:09.857Z,1504.00
2018-09-01T07:27:09.857Z,1508.00
2018-09-01T07:28:09.858Z,1516.00
2018-09-01T07:29:09.877Z,1520.00
2018-09-01T07:30:09.986Z,1528.00
2018-09-01T07:31:10.120Z,1532.00
2018-09-01T07:32:09.847Z,1536.00
2018-09-01T07:33:09.839Z,1544.00
2018-09-01T07:34:09.844Z,1552.00
2018-09-01T07:35:09.840Z,1556.00
2018-09-01T07:36:09.850Z,1564.00
2018-09-01T07:37:09.917Z,1564.00
2018-09-01T07:38:09.820Z,1572.00
2018-09-01T07:39:09.823Z,1580.00
2018-09-01T07:40:09.828Z,1584.00
2018-09-01T07:41:09.800Z,1592.00
2018-09-01T07:42:09.839Z,1600.00
2018-09-01T07:43:09.983Z,1604.00
2018-09-01T07:44:09.818Z,1612.00
2018-09-01T07:45:09.817Z,1620.00
2018-09-01T07:46:09.798Z,1628.00
2018-09-01T07:47:09.794Z,1636.00
2018-09-01T07:48:09.797Z,1644.00
2018-09-01T07:49:09.856Z,1648.00
2018-09-01T07:50:09.836Z,1656.00
2018-09-01T07:51:09.849Z,1668.00
2018-09-01T07:52:09.860Z,1676.00
2018-09-01T07:53:09.781Z,1680.00
2018-09-01T07:54:09.835Z,1692.00
2018-09-01T07:55:10.240Z,1700.00
2018-09-01T07:56:09.898Z,1708.00
2018-09-01T07:57:09.831Z,1720.00
2018-09-01T07:58:09.832Z,1728.00
2018-09-01T07:59:09.770Z,1732.00
2018-09-01T08:00:09.755Z,1744.00
2018-09-01T08:01:09.780Z,1752.00
2018-09-01T08:02:09.821Z,1760.00
2018-09-01T08:03:09.823Z,1768.00
2018-09-01T08:04:09.826Z,1780.00
2018-09-01T08:05:09.816Z,1780.00
2018-09-01T08:06:09.806Z,1796.00
2018-09-01T08:07:09.814Z,1804.00
2018-09-01T08:08:09.727Z,1812.00
2018-09-01T08:09:09.739Z,1824.00
2018-09-01T08:10:09.721Z,1832.00
2018-09-01T08:11:09.727Z,1844.00
2018-09-01T08:12:09.728Z,1856.00
2018-09-01T08:13:09.743Z,1868.00
2018-09-01T08:14:09.819Z,1872.00
2018-09-01T08:15:09.729Z,1876.00
2018-09-01T08:16:09.728Z,1892.00
2018-09-01T08:17:09.719Z,1904.00
2018-09-01T08:18:09.724Z,1908.00
2018-09-01T08:19:09.698Z,1916.00
2018-09-01T08:20:09.693Z,1932.00
2018-09-01T08:21:09.711Z,1940.00
2018-09-01T08:22:09.706Z,1952.00
2018-09-01T08:23:09.682Z,1960.00
2018-09-01T08:24:09.687Z,1976.00
2018-09-01T08:25:09.689Z,1992.00
2018-09-01T08:26:09.716Z,1996.00
2018-09-01T08:27:09.689Z,2000.00
2018-09-01T08:28:09.752Z,2016.00
2018-09-01T08:29:09.683Z,2024.00
2018-09-01T08:30:09.694Z,2036.00
2018-09-01T08:31:09.690Z,2072.00
2018-09-01T08:32:09.669Z,2080.00
2018-09-01T08:33:09.664Z,2092.00
2018-09-01T08:34:09.673Z,2680.00
2018-09-01T08:35:09.672Z,2676.00
2018-09-01T08:36:09.672Z,2540.00
2018-09-01T08:37:09.667Z,2456.00
2018-09-01T08:38:09.666Z,2460.00
2018-09-01T08:39:09.671Z,2480.00
2018-09-01T08:40:09.737Z,2452.00
2018-09-01T08:41:09.732Z,2440.00
2018-09-01T08:42:09.720Z,2432.00
2018-09-01T08:43:09.712Z,2480.00
2018-09-01T08:44:09.643Z,2508.00
2018-09-01T08:45:09.736Z,2216.00
2018-09-01T08:46:09.645Z,2180.00
2018-09-01T08:47:09.715Z,2436.00
2018-09-01T08:48:09.627Z,2168.00
2018-09-01T08:49:09.630Z,2444.00
2018-09-01T08:50:09.642Z,2480.00
2018-09-01T08:51:09.637Z,2504.00
2018-09-01T08:52:09.632Z,2536.00
2018-09-01T08:53:09.626Z,2572.00
2018-09-01T08:54:09.688Z,2460.00
2018-09-01T08:55:09.614Z,2572.00
2018-09-01T08:56:09.607Z,2332.00
2018-09-01T08:57:09.636Z,2636.00
2018-09-01T08:58:09.606Z,2700.00
2018-09-01T08:59:09.649Z,2792.00
2018-09-01T09:00:09.688Z,2776.00
2018-09-01T09:01:09.607Z,2692.00
2018-09-01T09:02:09.617Z,2840.00
2018-09-01T09:03:09.608Z,2744.00
2018-09-01T09:04:09.600Z,3052.00
2018-09-01T09:05:09.617Z,3180.00
2018-09-01T09:06:09.602Z,3100.00
2018-09-01T09:07:09.608Z,3228.00
2018-09-01T09:08:09.593Z,3312.00
2018-09-01T09:09:09.568Z,3384.00
2018-09-01T09:10:09.614Z,3488.00
2018-09-01T09:11:09.595Z,3420.00
2018-09-01T09:12:09.621Z,3296.00
2018-09-01T09:13:09.597Z,3428.00
2018-09-01T09:14:09.596Z,3568.00
2018-09-01T09:15:09.579Z,3632.00
2018-09-01T09:16:09.585Z,3756.00
2018-09-01T09:17:09.581Z,4000.00
2018-09-01T09:18:09.648Z,4084.00
2018-09-01T09:19:09.644Z,3868.00
2018-09-01T09:20:09.646Z,3820.00
2018-09-01T09:21:09.577Z,3776.00
2018-09-01T09:22:09.574Z,3520.00
2018-09-01T09:23:09.576Z,3332.00
2018-09-01T09:24:09.564Z,3284.00
2018-09-01T09:25:09.561Z,3248.00
2018-09-01T09:26:09.581Z,3224.00
2018-09-01T09:27:09.561Z,3208.00
2018-09-01T09:28:09.556Z,3244.00
2018-09-01T09:29:09.562Z,3448.00
2018-09-01T09:30:09.557Z,3912.00
2018-09-01T09:31:09.565Z,4072.00
2018-09-01T09:32:09.630Z,4196.00
2018-09-01T09:33:09.678Z,4328.00
2018-09-01T09:34:09.607Z,4268.00
2018-09-01T09:35:09.535Z,4380.00
2018-09-01T09:36:09.673Z,4152.00
2018-09-01T09:37:09.596Z,3900.00
2018-09-01T09:38:09.590Z,3796.00
2018-09-01T09:39:09.619Z,3816.00
2018-09-01T09:40:09.523Z,4048.00
2018-09-01T09:41:09.597Z,4424.00
2018-09-01T09:42:09.602Z,4752.00
2018-09-01T09:43:09.585Z,4904.00
2018-09-01T09:44:09.526Z,4872.00
2018-09-01T09:45:09.601Z,4688.00
2018-09-01T09:46:09.593Z,4296.00
2018-09-01T09:47:09.518Z,4072.00
2018-09-01T09:48:09.595Z,3972.00
2018-09-01T09:49:09.591Z,4300.00
2018-09-01T09:50:09.602Z,4640.00
2018-09-01T09:51:09.589Z,4656.00
2018-09-01T09:52:09.581Z,4300.00
2018-09-01T09:53:09.614Z,4196.00
2018-09-01T09:54:09.576Z,4428.00
2018-09-01T09:55:09.578Z,4480.00
2018-09-01T09:56:09.586Z,4564.00
2018-09-01T09:57:09.585Z,4576.00
2018-09-01T09:58:09.582Z,4576.00
2018-09-01T09:59:09.574Z,4532.00
2018-09-01T10:00:09.568Z,4616.00
2018-09-01T10:01:09.648Z,4604.00
2018-09-01T10:02:09.575Z,4728.00
2018-09-01T10:03:09.571Z,5260.00
2018-09-01T10:04:09.567Z,6068.00
2018-09-01T10:05:09.527Z,6364.00
2018-09-01T10:06:09.499Z,6192.00
2018-09-01T10:07:09.497Z,5960.00
2018-09-01T10:08:09.503Z,5708.00
2018-09-01T10:09:09.496Z,5556.00
2018-09-01T10:10:09.571Z,5432.00
2018-09-01T10:11:09.517Z,5260.00
2018-09-01T10:12:09.514Z,5128.00
2018-09-01T10:13:09.483Z,5120.00
2018-09-01T10:14:09.555Z,5188.00
2018-09-01T10:15:09.556Z,5204.00
2018-09-01T10:16:09.478Z,5248.00
2018-09-01T10:17:09.559Z,5292.00
2018-09-01T10:18:09.560Z,5444.00
2018-09-01T10:19:09.637Z,5668.00
2018-09-01T10:20:09.912Z,5960.00
2018-09-01T10:21:09.475Z,6216.00
2018-09-01T10:22:09.470Z,6436.00
2018-09-01T10:23:09.481Z,6472.00
2018-09-01T10:24:10.556Z,6180.00
2018-09-01T10:25:09.491Z,6516.00
2018-09-01T10:26:09.529Z,6876.00
2018-09-01T10:27:09.623Z,7552.00
2018-09-01T10:28:09.621Z,8280.00
2018-09-01T10:29:09.568Z,8036.00
2018-09-01T10:30:09.627Z,7760.00
2018-09-01T10:31:09.816Z,7524.00
2018-09-01T10:32:09.502Z,7468.00
2018-09-01T10:33:09.600Z,7576.00
2018-09-01T10:34:09.622Z,7880.00
2018-09-01T10:35:09.477Z,8044.00
2018-09-01T10:36:09.548Z,8108.00
2018-09-01T10:37:09.478Z,8228.00
2018-09-01T10:38:09.461Z,8196.00
2018-09-01T10:39:09.454Z,8204.00
2018-09-01T10:40:09.536Z,8348.00
2018-09-01T10:41:09.460Z,8120.00
2018-09-01T10:42:09.455Z,8432.00
2018-09-01T10:43:09.466Z,8732.00
2018-09-01T10:44:09.466Z,8160.00
2018-09-01T10:45:09.456Z,7440.00
2018-09-01T10:46:09.468Z,6316.00
2018-09-01T10:47:09.466Z,5116.00
2018-09-01T10:48:09.470Z,4388.00
2018-09-01T10:49:09.452Z,3960.00
2018-09-01T10:50:09.460Z,3540.00
2018-09-01T10:51:09.466Z,3204.00
2018-09-01T10:52:09.471Z,3120.00
2018-09-01T10:53:09.725Z,3024.00
2018-09-01T10:54:09.472Z,3064.00
2018-09-01T10:55:09.459Z,3204.00
2018-09-01T10:56:09.469Z,3504.00
2018-09-01T10:57:09.461Z,3812.00
2018-09-01T10:58:09.472Z,4056.00
2018-09-01T10:59:09.570Z,4372.00
2018-09-01T11:00:09.463Z,4652.00
2018-09-01T11:01:09.474Z,4752.00
2018-09-01T11:02:09.470Z,4536.00
2018-09-01T11:03:09.462Z,4544.00
2018-09-01T11:04:09.458Z,4492.00
2018-09-01T11:05:09.583Z,4628.00
2018-09-01T11:06:09.469Z,4964.00
2018-09-01T11:07:09.480Z,5636.00
2018-09-01T11:08:09.460Z,6312.00
2018-09-01T11:09:09.466Z,7216.00
2018-09-01T11:10:09.465Z,9736.00
2018-09-01T11:11:09.493Z,10504.00
2018-09-01T11:12:09.464Z,11028.00
2018-09-01T11:13:09.459Z,10928.00
2018-09-01T11:14:09.934Z,10548.00
2018-09-01T11:15:09.475Z,9820.00
2018-09-01T11:16:34.934Z,8964.00
2018-09-01T11:17:34.926Z,8740.00
2018-09-01T11:19:29.599Z,8600.00
2018-09-01T11:20:29.575Z,8836.00
2018-09-01T11:22:24.304Z,9616.00
2018-09-01T11:23:24.274Z,9648.00
2018-09-01T11:25:18.445Z,9848.00
2018-09-01T11:26:18.447Z,12668.00
2018-09-01T11:28:12.779Z,36128.00
2018-09-01T11:29:12.624Z,15700.00
2018-09-01T11:31:07.299Z,8656.00
2018-09-01T11:32:07.319Z,9516.00
2018-09-01T11:34:02.057Z,16924.00
2018-09-01T11:35:01.983Z,17536.00
2018-09-01T11:36:56.723Z,75264.00
2018-09-01T11:37:56.649Z,85984.00
2018-09-01T11:39:50.932Z,95392.00
2018-09-01T11:40:50.827Z,95680.00
2018-09-01T11:42:45.241Z,99232.00
2018-09-01T11:43:45.013Z,61312.00
2018-09-01T11:45:39.258Z,10068.00
2018-09-01T11:46:39.212Z,9340.00
2018-09-01T11:48:33.440Z,7940.00
2018-09-01T11:49:33.403Z,7152.00
2018-09-01T11:51:28.108Z,6012.00
2018-09-01T11:52:28.071Z,5680.00
2018-09-01T11:54:22.308Z,5276.00
2018-09-01T11:55:22.263Z,5060.00
2018-09-01T11:57:17.023Z,4592.00
2018-09-01T11:58:16.944Z,4452.00
2018-09-01T12:00:11.145Z,4288.00
2018-09-01T12:01:11.286Z,4244.00
2018-09-01T12:03:05.883Z,4268.00
2018-09-01T12:04:05.823Z,4408.00
2018-09-01T12:06:00.006Z,4832.00
2018-09-01T12:07:00.011Z,5436.00
2018-09-01T12:08:54.278Z,7832.00
2018-09-01T12:09:54.214Z,9620.00
2018-09-01T12:11:48.388Z,12232.00
2018-09-01T12:12:48.377Z,12760.00
2018-09-01T12:14:42.626Z,11752.00
2018-09-01T12:15:42.647Z,11524.00
2018-09-01T12:17:36.746Z,12588.00
2018-09-01T12:18:36.757Z,12844.00
2018-09-01T12:20:30.980Z,14604.00
2018-09-01T12:21:30.935Z,16604.00
2018-09-01T12:23:25.624Z,52000.00
2018-09-01T12:24:25.634Z,45888.00
2018-09-01T12:26:19.846Z,51360.00
2018-09-01T12:27:19.794Z,49856.00
2018-09-01T12:29:13.981Z,82304.00
2018-09-01T12:30:13.986Z,100256.00
2018-09-01T12:32:08.179Z,106080.00
2018-09-01T12:33:08.174Z,110080.00
2018-09-01T12:35:02.346Z,103968.00
2018-09-01T12:36:02.366Z,95744.00
2018-09-01T12:37:56.601Z,112192.00
2018-09-01T12:38:56.592Z,112448.00
2018-09-01T12:40:50.754Z,109952.00
2018-09-01T12:41:50.748Z,106304.00
2018-09-01T12:43:44.997Z,47360.00
2018-09-01T12:44:44.942Z,63808.00
2018-09-01T12:46:39.142Z,30240.00
2018-09-01T12:47:39.139Z,98432.00
2018-09-01T12:49:33.453Z,87392.00
2018-09-01T12:50:33.410Z,16992.00
2018-09-01T12:52:28.045Z,20576.00
2018-09-01T12:53:28.042Z,17216.00
2018-09-01T12:55:22.329Z,58272.00
2018-09-01T12:56:22.279Z,18400.00
2018-09-01T12:58:16.460Z,13996.00
2018-09-01T12:59:16.466Z,17856.00
2018-09-01T13:01:10.687Z,45888.00
2018-09-01T13:02:10.681Z,17632.00
2018-09-01T13:04:04.847Z,41024.00
2018-09-01T13:06:19.613Z,13544.00